Stations météo

Publicité
Dunstaffnage, Grande-Bretagne (99006): Température de l'air & dewpoint: 13.10.2018 21:00:00 - 19.10.2018 21:00:00 (BST)Dunstaffnage, Grande-Bretagne (99006): Température de l'air -20cm: 13.10.2018 21:00:00 - 19.10.2018 21:00:00 (BST)Dunstaffnage, Grande-Bretagne (99006): Vitesse du vent & gusts: 13.10.2018 21:00:00 - 19.10.2018 21:00:00 (BST)Dunstaffnage, Grande-Bretagne (99006): Direction du vent: 13.10.2018 21:00:00 - 19.10.2018 21:00:00 (BST)Dunstaffnage, Grande-Bretagne (99006): Quantités de précipitations: 13.10.2018 21:00:00 - 19.10.2018 21:00:00 (BST)
Date & Time tt [°C] td [°C] tt -20cm [°C] ff [km/h] ff [knt] fx [km/h] fx [knt] dd rr [mm]
19.10.2018 21:00:00 7,2 5,9 - 5 3 - - SSW 0,0
19.10.2018 20:00:00 7,7 6,5 - 8 4 - - SW 0,0
19.10.2018 19:00:00 8,4 6,3 - 5 3 - - WSW 0,0
19.10.2018 18:00:00 10,6 7,5 - 11 6 - - W 0,0
19.10.2018 17:00:00 11,7 7,4 - 13 7 - - W 0,0
19.10.2018 16:00:00 12,7 7,8 - 16 9 - - WSW 0,0
19.10.2018 15:00:00 13,5 7,1 - 22 12 - - W 0,0
19.10.2018 14:00:00 12,3 9,9 - 16 9 - - W 0,0
19.10.2018 13:00:00 11,6 10,6 - 5 3 - - SSW 0,2
19.10.2018 12:00:00 11,0 10,3 - 16 9 - - SW 0,0
19.10.2018 11:00:00 10,4 9,7 - 15 8 - - SSW 0,4
19.10.2018 10:00:00 9,5 8,8 10,2 15 8 - - S 0,6
19.10.2018 09:00:00 8,8 8,0 - 9 5 - - SSE 1,0
19.10.2018 08:00:00 8,9 7,4 - 9 5 - - S 0,2
19.10.2018 07:00:00 9,8 6,4 - 15 8 - - S 0,0
19.10.2018 06:00:00 9,9 6,2 - 18 10 - - S 0,0
19.10.2018 05:00:00 10,0 6,1 - 15 8 - - SSE 0,0
19.10.2018 04:00:00 9,7 6,0 - 15 8 - - SSE 0,0
19.10.2018 03:00:00 9,5 5,5 - 13 7 - - SSE 0,0
19.10.2018 02:00:00 9,3 5,4 - 11 6 - - SSE 0,0
19.10.2018 01:00:00 8,9 5,8 - 8 4 - - ESE 0,0
19.10.2018 00:00:00 9,0 5,7 - 9 5 - - ESE 0,0
18.10.2018 23:00:00 8,7 5,5 - 9 5 - - ESE 0,0
18.10.2018 22:00:00 8,7 5,2 - 11 6 - - SE 0,0
18.10.2018 21:00:00 8,9 5,6 - 11 6 - - ESE 0,0
18.10.2018 20:00:00 8,9 5,8 - 11 6 - - SE 0,0
18.10.2018 19:00:00 8,8 6,8 - 11 6 - - ESE 0,0
18.10.2018 18:00:00 10,0 5,4 - 8 4 - - SSE 0,0
18.10.2018 17:00:00 10,8 5,4 - 9 5 - - S 0,0
18.10.2018 16:00:00 11,0 6,4 - 8 4 - - SSW 0,0
18.10.2018 15:00:00 11,6 6,2 - 9 5 - - SW 0,0
18.10.2018 14:00:00 11,3 7,0 - 9 5 - - SSW 0,0
18.10.2018 13:00:00 11,7 7,0 - 9 5 - - SSW 0,0
18.10.2018 12:00:00 10,8 7,3 - 11 6 - - S 0,0
18.10.2018 11:00:00 10,0 8,1 - 11 6 - - ESE 0,0
18.10.2018 10:00:00 8,4 6,6 10,2 4 2 - - SE 0,0
18.10.2018 09:00:00 7,7 6,8 - 9 5 - - E 0,0
18.10.2018 08:00:00 7,2 6,6 - 9 5 - - SE 0,0
18.10.2018 07:00:00 7,2 6,8 - 2 1 - - SE 0,0
18.10.2018 06:00:00 6,8 6,5 - 4 2 - - WSW 0,0
18.10.2018 05:00:00 6,2 5,8 - 2 1 - - SSE 0,0
18.10.2018 04:00:00 6,2 5,8 - 0 0 - - N 0,0
18.10.2018 03:00:00 6,0 5,6 - 5 3 - - ENE 0,0
18.10.2018 02:00:00 5,1 4,7 - 2 1 - - SSE 0,0
18.10.2018 01:00:00 4,3 3,5 - 2 1 - - SSE 0,0
18.10.2018 00:00:00 5,8 4,6 - 2 1 - - SSW 0,0
17.10.2018 23:00:00 8,0 6,1 - 8 4 - - WNW 0,0
17.10.2018 22:00:00 9,0 6,0 - 11 6 - - W 0,0
17.10.2018 21:00:00 8,7 5,9 - 5 3 - - WSW 0,0
17.10.2018 20:00:00 6,5 4,3 - 8 4 - - SW 0,0
17.10.2018 19:00:00 9,3 5,5 - 13 7 - - W 0,0
17.10.2018 18:00:00 10,1 5,9 - 18 10 - - W 0,0
17.10.2018 17:00:00 11,3 6,4 - 18 10 - - W 0,0
17.10.2018 16:00:00 12,2 5,9 - 18 10 - - W 0,0
17.10.2018 15:00:00 11,4 5,4 - 16 9 - - WNW 0,0
17.10.2018 14:00:00 12,1 6,3 - 18 10 - - W 0,0
17.10.2018 13:00:00 11,6 5,9 - 22 12 - - W 0,0
17.10.2018 12:00:00 12,3 7,3 - 15 8 - - W 0,0
17.10.2018 11:00:00 11,1 7,5 - 11 6 - - W 0,2
17.10.2018 10:00:00 10,0 8,8 10,7 4 2 - - WSW 0,0
17.10.2018 09:00:00 9,2 8,2 - 8 4 - - SSW 0,0
17.10.2018 08:00:00 9,5 7,9 - 15 8 - - W 0,0
17.10.2018 07:00:00 9,3 8,3 - 22 12 - - W 0,2
17.10.2018 06:00:00 9,6 8,6 - 21 11 - - WNW 0,2
17.10.2018 05:00:00 10,0 8,8 - 5 3 - - WSW 0,0
17.10.2018 04:00:00 10,2 8,1 - 5 3 - - SW 0,0
17.10.2018 03:00:00 10,5 7,5 - 9 5 - - SW 0,0
17.10.2018 02:00:00 11,0 9,2 - 15 8 - - WSW 0,0
17.10.2018 01:00:00 10,2 8,6 - 11 6 - - SW 0,0
17.10.2018 00:00:00 11,0 9,7 - 9 5 - - SW 1,6
16.10.2018 23:00:00 11,8 10,9 - 11 6 - - SW 1,2
16.10.2018 22:00:00 12,0 10,8 - 8 4 - - SSW 0,2
16.10.2018 21:00:00 12,1 10,8 - 8 4 - - S 1,4
16.10.2018 20:00:00 12,6 10,9 - 11 6 - - SSW 0,0
16.10.2018 19:00:00 12,9 10,8 - 15 8 - - SSW 0,0
16.10.2018 18:00:00 12,5 10,4 - 15 8 - - S 0,0
16.10.2018 17:00:00 13,1 10,1 - 22 12 - - S 0,0
16.10.2018 16:00:00 13,1 10,2 - 21 11 - - S 0,0
16.10.2018 15:00:00 13,5 10,4 - 22 12 - - S 0,0
16.10.2018 14:00:00 12,7 10,9 - 24 13 50 27 S 0,0
16.10.2018 13:00:00 11,6 10,1 - 22 12 46 25 S 0,0
16.10.2018 12:00:00 10,9 9,7 - 22 12 46 25 S 1,0
16.10.2018 11:00:00 11,3 8,8 - 21 11 - - S 0,2
16.10.2018 10:00:00 11,7 8,6 10,4 9 5 - - S 0,0
16.10.2018 09:00:00 11,5 8,6 - 13 7 - - ESE 0,0
16.10.2018 08:00:00 10,8 8,2 - 15 8 - - E 0,0
16.10.2018 07:00:00 10,3 7,4 - 8 4 - - SE 0,0
16.10.2018 06:00:00 9,4 6,9 - 8 4 - - SE 0,0
16.10.2018 05:00:00 8,5 6,1 - 5 3 - - ESE 0,0
16.10.2018 04:00:00 8,9 5,8 - 8 4 - - E 0,0
16.10.2018 03:00:00 9,3 5,5 - 8 4 - - E 0,0
16.10.2018 02:00:00 9,5 5,0 - 5 3 - - ENE 0,0
16.10.2018 01:00:00 9,5 4,4 - 9 5 - - ESE 0,0
16.10.2018 00:00:00 9,0 6,0 - 5 3 - - E 0,0
15.10.2018 23:00:00 7,7 5,7 - 2 1 - - S 0,0
15.10.2018 22:00:00 8,8 5,7 - 9 5 - - SE 0,0
15.10.2018 21:00:00 9,3 6,0 - 11 6 - - SE 0,0
15.10.2018 20:00:00 9,6 6,0 - 9 5 - - SSE 0,0
15.10.2018 19:00:00 10,1 6,7 - 15 8 - - SSE 0,0
15.10.2018 18:00:00 11,5 7,1 - 9 5 - - SSE 0,0
15.10.2018 17:00:00 13,6 6,0 - 8 4 - - SW 0,0
15.10.2018 16:00:00 13,4 5,5 - 11 6 - - SW 0,0
15.10.2018 15:00:00 14,1 7,5 - 13 7 - - SW 0,0
15.10.2018 14:00:00 13,6 8,1 - 11 6 - - WSW 0,0
15.10.2018 13:00:00 12,0 6,9 - 11 6 - - WSW 0,0
15.10.2018 12:00:00 12,8 7,0 - 11 6 - - SSW 0,0
15.10.2018 11:00:00 12,7 8,6 - 5 3 - - ESE 0,0
15.10.2018 10:00:00 9,1 6,7 10,7 11 6 - - ENE 0,0
15.10.2018 09:00:00 6,9 5,7 - 11 6 - - SE 0,0
15.10.2018 08:00:00 7,0 5,1 - 4 2 - - SSE 0,0
15.10.2018 07:00:00 7,4 5,7 - 9 5 - - SSE 0,0
15.10.2018 06:00:00 6,9 4,9 - 8 4 - - E 0,0
15.10.2018 05:00:00 7,0 5,2 - 9 5 - - E 0,0
15.10.2018 04:00:00 7,1 5,3 - 8 4 - - ESE 0,0
15.10.2018 03:00:00 7,3 5,3 - 11 6 - - ENE 0,0
15.10.2018 02:00:00 7,3 5,0 - 5 3 - - E 0,0
15.10.2018 01:00:00 7,6 5,2 - 13 7 - - ESE 0,0
15.10.2018 00:00:00 7,7 5,0 - 16 9 - - ESE 0,0
14.10.2018 23:00:00 5,9 4,5 - 11 6 - - E 0,0
14.10.2018 22:00:00 6,9 5,1 - 5 3 - - NNE 0,0
14.10.2018 21:00:00 6,4 4,3 - 5 3 - - WSW 0,0
14.10.2018 20:00:00 7,7 5,6 - 4 2 - - SSW 0,0
14.10.2018 19:00:00 8,9 6,0 - 2 1 - - S 0,0
14.10.2018 18:00:00 11,4 6,9 - 2 1 - - SSW 0,0
14.10.2018 17:00:00 12,1 6,0 - 4 2 - - SSW 0,0
14.10.2018 16:00:00 12,9 6,1 - 13 7 - - WSW 0,0
14.10.2018 15:00:00 12,6 5,0 - 13 7 - - SW 0,0
14.10.2018 14:00:00 13,2 5,6 - 11 6 - - SSW 0,0
14.10.2018 13:00:00 12,8 6,2 - 9 5 - - S 0,0
14.10.2018 12:00:00 10,7 8,4 - 9 5 - - ENE 0,0
14.10.2018 11:00:00 8,4 7,6 - 4 2 - - S 0,0
14.10.2018 10:00:00 8,2 7,6 11,2 9 5 - - SSE 0,0
14.10.2018 09:00:00 7,1 6,7 - 11 6 - - E 0,0
14.10.2018 08:00:00 6,5 5,9 - 2 1 - - SSW 0,0
14.10.2018 07:00:00 7,6 6,8 - 4 2 - - SSE 0,0
14.10.2018 06:00:00 7,6 6,9 - 8 4 - - S 0,2
14.10.2018 05:00:00 8,3 7,4 - 8 4 - - SW 0,0
14.10.2018 04:00:00 8,2 6,3 - 5 3 - - SW 0,0
14.10.2018 03:00:00 9,3 6,7 - 9 5 - - W 0,0
14.10.2018 02:00:00 9,4 6,6 - 15 8 - - W 0,0
14.10.2018 01:00:00 9,5 7,9 - 28 15 - - WNW 0,2
14.10.2018 00:00:00 9,2 7,9 - 16 9 - - WNW 0,6
13.10.2018 23:00:00 9,6 8,1 - 21 11 - - WNW 0,0
13.10.2018 22:00:00 9,7 8,3 - 16 9 - - WNW 0,0
13.10.2018 21:00:00 10,1 8,4 - 8 4 - - NNW 0,2

tt = Température de l'air
td = dewpoint
tt -20cm = Température de l'air -20cm
ff = Vitesse du vent
fx = gusts
dd = Direction du vent
rr = Quantités de précipitations

stations d'obs. à proximité